Sao Paulo, Brazil
Current Conditions -  °F | °C
As of 9:00 AM on Saturday 25 Oct 2014 (Local Time) from SBMT Reporting Station
Haze Haze  
Wind Chill: 20°   Ceiling: 1100
Heat Index: 20°   Visibility: 1.2mi
Dew Point: 16°   Wind: 2mph
Humidity: 78%   Direction: 190°S
Pressure: 30.06"   Gusts: NA
Location:  23.53°S, 46.63°W
Report Text: SBMT 251100Z 19002KT 2000 BR BKN011 20/16 Q1018
Loading
Personal Weather Stations






























Interactive Weather Map
Tropical Storm Tracking
New forecast layout! Learn more

10-Day Weather Forecast

Advertisements
Track Severe Weather on mobile